createdAt,value
2022-09-10T00:01:43.835Z,1003.16
2022-09-10T00:04:16.769Z,1003.15
2022-09-10T00:06:52.673Z,1003.15
2022-09-10T00:09:25.798Z,1003.16
2022-09-10T00:11:58.730Z,1003.16
2022-09-10T00:14:31.770Z,1003.17
2022-09-10T00:17:04.751Z,1003.17
2022-09-10T00:19:40.746Z,1003.18
2022-09-10T00:22:13.813Z,1003.20
2022-09-10T00:24:46.793Z,1003.22
2022-09-10T00:27:19.808Z,1003.24
2022-09-10T00:29:52.778Z,1003.25
2022-09-10T00:32:25.597Z,1003.27
2022-09-10T00:34:58.858Z,1003.29
2022-09-10T00:37:32.805Z,1003.31
2022-09-10T00:40:05.906Z,1003.33
2022-09-10T00:42:38.785Z,1003.35
2022-09-10T00:45:11.835Z,1003.38
2022-09-10T00:47:44.787Z,1003.38
2022-09-10T00:50:17.769Z,1003.37
2022-09-10T00:52:50.801Z,1003.35
2022-09-10T00:55:23.879Z,1003.33
2022-09-10T00:57:56.869Z,1003.30
2022-09-10T01:00:29.795Z,1003.29
2022-09-10T01:03:02.837Z,1003.28
2022-09-10T01:05:35.806Z,1003.28
2022-09-10T01:08:08.790Z,1003.26
2022-09-10T01:10:41.600Z,1003.25
2022-09-10T01:13:14.896Z,1003.26
2022-09-10T01:15:51.764Z,1003.26
2022-09-10T01:18:24.899Z,1003.29
2022-09-10T01:20:57.944Z,1003.28
2022-09-10T01:23:30.817Z,1003.27
2022-09-10T01:26:03.894Z,1003.29
2022-09-10T01:28:36.926Z,1003.30
2022-09-10T01:31:09.838Z,1003.31
2022-09-10T01:33:42.843Z,1003.32
2022-09-10T01:36:15.891Z,1003.31
2022-09-10T01:38:48.844Z,1003.33
2022-09-10T01:41:21.932Z,1003.32
2022-09-10T01:43:54.963Z,1003.31
2022-09-10T01:46:27.872Z,1003.32
2022-09-10T01:49:00.931Z,1003.32
2022-09-10T01:51:33.858Z,1003.32
2022-09-10T01:54:06.756Z,1003.34
2022-09-10T01:56:39.943Z,1003.33
2022-09-10T01:59:12.977Z,1003.32
2022-09-10T02:01:45.920Z,1003.31
2022-09-10T02:04:19.071Z,1003.31
2022-09-10T02:06:52.907Z,1003.30
2022-09-10T02:09:25.960Z,1003.30
2022-09-10T02:11:58.885Z,1003.28
2022-09-10T02:14:31.911Z,1003.26
2022-09-10T02:17:04.998Z,1003.26
2022-09-10T02:19:37.993Z,1003.26
2022-09-10T02:22:10.910Z,1003.24
2022-09-10T02:24:43.987Z,1003.24
2022-09-10T02:27:16.907Z,1003.22
2022-09-10T02:29:49.986Z,1003.19
2022-09-10T02:32:23.009Z,1003.19
2022-09-10T02:34:55.946Z,1003.17
2022-09-10T02:37:30.032Z,1003.15
2022-09-10T02:40:02.759Z,1003.14
2022-09-10T02:42:35.970Z,1003.15
2022-09-10T02:45:23.019Z,1003.14
2022-09-10T02:47:55.956Z,1003.12
2022-09-10T02:50:28.921Z,1003.10
2022-09-10T02:55:51.985Z,1003.07
2022-09-10T02:58:25.065Z,1003.05
2022-09-10T03:00:58.092Z,1003.04
2022-09-10T03:03:31.006Z,1003.01
2022-09-10T03:06:03.882Z,1003.01
2022-09-10T03:08:37.053Z,1003.02
2022-09-10T03:11:09.968Z,1003.03
2022-09-10T03:13:43.004Z,1003.04
2022-09-10T03:16:16.069Z,1003.04
2022-09-10T03:18:52.904Z,1003.02
2022-09-10T03:21:26.114Z,1003.03
2022-09-10T03:23:59.018Z,1003.04
2022-09-10T03:26:32.010Z,1003.05
2022-09-10T03:29:05.013Z,1003.05
2022-09-10T03:31:38.187Z,1003.05
2022-09-10T03:34:11.048Z,1003.06
2022-09-10T03:36:44.109Z,1003.07
2022-09-10T03:39:17.065Z,1003.08
2022-09-10T03:41:50.118Z,1003.08
2022-09-10T03:44:23.070Z,1003.08
2022-09-10T03:47:00.021Z,1003.08
2022-09-10T03:49:33.123Z,1003.09
2022-09-10T03:52:06.069Z,1003.09
2022-09-10T03:54:39.124Z,1003.09
2022-09-10T03:57:12.087Z,1003.11
2022-09-10T03:59:45.057Z,1003.12
2022-09-10T04:02:18.163Z,1003.13
2022-09-10T04:04:51.152Z,1003.15
2022-09-10T04:07:24.066Z,1003.15
2022-09-10T04:09:57.225Z,1003.13
2022-09-10T04:12:30.063Z,1003.11
2022-09-10T04:15:03.125Z,1003.10
2022-09-10T04:17:36.275Z,1003.09
2022-09-10T04:20:10.104Z,1003.08
2022-09-10T04:22:43.198Z,1003.08
2022-09-10T04:25:16.120Z,1003.07
2022-09-10T04:27:48.929Z,1003.07
2022-09-10T04:30:22.148Z,1003.07
2022-09-10T04:32:55.124Z,1003.09
2022-09-10T04:35:28.095Z,1003.10
2022-09-10T04:38:01.147Z,1003.11
2022-09-10T04:40:33.812Z,1003.12
2022-09-10T04:43:07.254Z,1003.13
2022-09-10T04:45:41.330Z,1003.12
2022-09-10T04:48:13.844Z,1003.14
2022-09-10T04:51:12.254Z,1003.14
2022-09-10T04:53:20.208Z,1003.14
2022-09-10T04:55:53.204Z,1003.14
2022-09-10T04:58:26.232Z,1003.15
2022-09-10T05:00:59.178Z,1003.17
2022-09-10T05:03:32.274Z,1003.20
2022-09-10T05:06:05.144Z,1003.22
2022-09-10T05:08:38.492Z,1003.22
2022-09-10T05:11:11.161Z,1003.24
2022-09-10T05:13:44.244Z,1003.25
2022-09-10T05:16:18.234Z,1003.25
2022-09-10T05:18:51.251Z,1003.25
2022-09-10T05:21:24.189Z,1003.25
2022-09-10T05:23:57.242Z,1003.25
2022-09-10T05:26:30.168Z,1003.25
2022-09-10T05:29:03.237Z,1003.25
2022-09-10T05:31:36.261Z,1003.24
2022-09-10T05:34:09.252Z,1003.25
2022-09-10T05:36:42.275Z,1003.26
2022-09-10T05:39:15.274Z,1003.25
2022-09-10T05:41:48.313Z,1003.29
2022-09-10T05:44:21.206Z,1003.31
2022-09-10T05:46:54.185Z,1003.31
2022-09-10T05:49:27.331Z,1003.31
2022-09-10T05:52:00.287Z,1003.32
2022-09-10T05:54:33.334Z,1003.32
2022-09-10T05:57:06.323Z,1003.33
2022-09-10T05:59:39.267Z,1003.33
2022-09-10T06:02:13.343Z,1003.33
2022-09-10T06:04:46.336Z,1003.32
2022-09-10T06:07:19.244Z,1003.34
2022-09-10T06:09:52.296Z,1003.34
2022-09-10T06:12:25.250Z,1003.36
2022-09-10T06:14:58.330Z,1003.38
2022-09-10T06:17:31.265Z,1003.40
2022-09-10T06:20:04.353Z,1003.41
2022-09-10T06:22:40.041Z,1003.42
2022-09-10T06:25:13.231Z,1003.43
2022-09-10T06:27:46.329Z,1003.44
2022-09-10T06:30:19.386Z,1003.47
2022-09-10T06:32:52.281Z,1003.49
2022-09-10T06:35:25.279Z,1003.53
2022-09-10T06:37:58.438Z,1003.54
2022-09-10T06:40:32.275Z,1003.55
2022-09-10T06:43:05.341Z,1003.57
2022-09-10T06:45:38.143Z,1003.59
2022-09-10T06:50:44.218Z,1003.61
2022-09-10T06:53:17.098Z,1003.61
2022-09-10T06:55:51.251Z,1003.64
2022-09-10T06:58:24.244Z,1003.66
2022-09-10T07:00:57.641Z,1003.68
2022-09-10T07:03:31.309Z,1003.70
2022-09-10T07:06:04.476Z,1003.72
2022-09-10T07:08:37.368Z,1003.74
2022-09-10T07:11:10.408Z,1003.76
2022-09-10T07:13:43.303Z,1003.75
2022-09-10T07:16:16.267Z,1003.76
2022-09-10T07:18:49.377Z,1003.77
2022-09-10T07:21:22.102Z,1003.78
2022-09-10T07:23:55.212Z,1003.80
2022-09-10T07:26:28.093Z,1003.83
2022-09-10T07:29:01.327Z,1003.86
2022-09-10T07:31:34.365Z,1003.87
2022-09-10T07:34:07.377Z,1003.89
2022-09-10T07:36:40.377Z,1003.90
2022-09-10T07:39:13.438Z,1003.92
2022-09-10T07:41:46.434Z,1003.93
2022-09-10T07:44:19.447Z,1003.94
2022-09-10T07:46:52.366Z,1003.95
2022-09-10T07:49:25.311Z,1003.97
2022-09-10T07:52:00.115Z,1003.99
2022-09-10T07:54:31.370Z,1004.01
2022-09-10T07:57:07.083Z,1004.03
2022-09-10T07:59:40.390Z,1004.05
2022-09-10T08:02:13.553Z,1004.07
2022-09-10T08:04:46.270Z,1004.08
2022-09-10T08:07:19.422Z,1004.10
2022-09-10T08:09:52.362Z,1004.11
2022-09-10T08:12:25.250Z,1004.12
2022-09-10T08:14:58.200Z,1004.13
2022-09-10T08:17:31.155Z,1004.13
2022-09-10T08:20:04.468Z,1004.13
2022-09-10T08:22:37.188Z,1004.15
2022-09-10T08:25:10.484Z,1004.16
2022-09-10T08:27:43.474Z,1004.18
2022-09-10T08:30:16.446Z,1004.22
2022-09-10T08:32:49.499Z,1004.25
2022-09-10T08:35:22.293Z,1004.27
2022-09-10T08:37:55.169Z,1004.30
2022-09-10T08:40:28.539Z,1004.32
2022-09-10T08:43:01.490Z,1004.34
2022-09-10T08:45:34.486Z,1004.34
2022-09-10T08:48:07.315Z,1004.36
2022-09-10T08:50:40.236Z,1004.37
2022-09-10T08:53:13.588Z,1004.38
2022-09-10T08:56:00.296Z,1004.40
2022-09-10T08:58:33.167Z,1004.41
2022-09-10T09:01:06.649Z,1004.42
2022-09-10T09:03:39.490Z,1004.43
2022-09-10T09:06:12.542Z,1004.43
2022-09-10T09:08:45.593Z,1004.46
2022-09-10T09:11:18.279Z,1004.46
2022-09-10T09:13:51.547Z,1004.47
2022-09-10T09:16:24.228Z,1004.49
2022-09-10T09:18:57.482Z,1004.48
2022-09-10T09:21:30.266Z,1004.51
2022-09-10T09:24:13.225Z,1004.52
2022-09-10T09:26:36.382Z,1004.53
2022-09-10T09:29:09.371Z,1004.53
2022-09-10T09:31:42.537Z,1004.54
2022-09-10T09:34:15.359Z,1004.55
2022-09-10T09:36:48.422Z,1004.55
2022-09-10T09:39:25.004Z,1004.56
2022-09-10T09:41:54.426Z,1004.57
2022-09-10T09:44:27.543Z,1004.57
2022-09-10T09:47:00.358Z,1004.55
2022-09-10T09:49:33.548Z,1004.53
2022-09-10T09:52:06.449Z,1004.51
2022-09-10T09:55:09.986Z,1004.49
2022-09-10T09:57:12.543Z,1004.49
2022-09-10T09:59:45.529Z,1004.49
2022-09-10T10:02:18.416Z,1004.49
2022-09-10T10:04:51.338Z,1004.47
2022-09-10T10:07:24.403Z,1004.44
2022-09-10T10:09:57.418Z,1004.44
2022-09-10T10:12:30.470Z,1004.43
2022-09-10T10:15:03.384Z,1004.42
2022-09-10T10:17:36.440Z,1004.40
2022-09-10T10:20:09.771Z,1004.40
2022-09-10T10:22:42.659Z,1004.39
2022-09-10T10:25:15.652Z,1004.39
2022-09-10T10:27:48.471Z,1004.39
2022-09-10T10:30:21.312Z,1004.38
2022-09-10T10:32:54.464Z,1004.37
2022-09-10T10:35:27.302Z,1004.36
2022-09-10T10:38:00.698Z,1004.34
2022-09-10T10:40:36.467Z,1004.34
2022-09-10T10:43:09.505Z,1004.32
2022-09-10T10:45:42.482Z,1004.32
2022-09-10T10:48:15.697Z,1004.32
2022-09-10T10:50:52.657Z,1004.29
2022-09-10T10:53:21.647Z,1004.28
2022-09-10T10:55:54.663Z,1004.26
2022-09-10T10:58:27.684Z,1004.26
2022-09-10T11:01:00.677Z,1004.26
2022-09-10T11:03:33.352Z,1004.27
2022-09-10T11:06:06.484Z,1004.26
2022-09-10T11:08:39.649Z,1004.26
2022-09-10T11:11:12.514Z,1004.26
2022-09-10T11:13:45.708Z,1004.26
2022-09-10T11:16:18.528Z,1004.25
2022-09-10T11:18:51.399Z,1004.24
2022-09-10T11:21:24.654Z,1004.22
2022-09-10T11:23:57.744Z,1004.20
2022-09-10T11:26:30.700Z,1004.19
2022-09-10T11:29:03.701Z,1004.18
2022-09-10T11:31:36.713Z,1004.18
2022-09-10T11:34:09.691Z,1004.16
2022-09-10T11:36:42.818Z,1004.16
2022-09-10T11:39:15.724Z,1004.15
2022-09-10T11:41:48.780Z,1004.15
2022-09-10T11:44:21.795Z,1004.16
2022-09-10T11:46:54.827Z,1004.15
2022-09-10T11:49:27.658Z,1004.14
2022-09-10T11:52:14.789Z,1004.12
2022-09-10T11:54:47.708Z,1004.11
2022-09-10T11:57:20.853Z,1004.11
2022-09-10T11:59:53.846Z,1004.11
2022-09-10T12:02:26.766Z,1004.10
2022-09-10T12:04:59.833Z,1004.09
2022-09-10T12:07:32.730Z,1004.07
2022-09-10T12:10:05.712Z,1004.06
2022-09-10T12:12:38.790Z,1004.07
2022-09-10T12:15:11.747Z,1004.08
2022-09-10T12:17:44.827Z,1004.09
2022-09-10T12:20:17.786Z,1004.10
2022-09-10T12:22:50.757Z,1004.13
2022-09-10T12:25:23.834Z,1004.13
2022-09-10T12:27:56.713Z,1004.15
2022-09-10T12:30:29.752Z,1004.14
2022-09-10T12:33:02.828Z,1004.13
2022-09-10T12:35:35.478Z,1004.10
2022-09-10T12:38:08.599Z,1004.08
2022-09-10T12:40:41.625Z,1004.07
2022-09-10T12:43:14.538Z,1004.05
2022-09-10T12:45:47.616Z,1004.06
2022-09-10T12:48:25.068Z,1004.05
2022-09-10T12:50:53.620Z,1004.02
2022-09-10T12:53:26.728Z,1004.00
2022-09-10T12:55:59.714Z,1003.98
2022-09-10T12:58:32.640Z,1003.98
2022-09-10T13:01:05.704Z,1003.96
2022-09-10T13:03:38.749Z,1003.94
2022-09-10T13:06:13.524Z,1003.92
2022-09-10T13:08:46.687Z,1003.90
2022-09-10T13:11:19.789Z,1003.89
2022-09-10T13:13:52.664Z,1003.87
2022-09-10T13:16:25.742Z,1003.85
2022-09-10T13:18:58.825Z,1003.83
2022-09-10T13:21:31.543Z,1003.84
2022-09-10T13:24:04.697Z,1003.82
2022-09-10T13:26:37.712Z,1003.79
2022-09-10T13:29:10.740Z,1003.78
2022-09-10T13:31:43.600Z,1003.77
2022-09-10T13:34:16.561Z,1003.77
2022-09-10T13:36:49.600Z,1003.76
2022-09-10T13:39:22.554Z,1003.77
2022-09-10T13:41:55.572Z,1003.75
2022-09-10T13:44:28.601Z,1003.75
2022-09-10T13:47:01.950Z,1003.73
2022-09-10T13:49:34.949Z,1003.72
2022-09-10T13:52:07.948Z,1003.70
2022-09-10T13:54:40.886Z,1003.68
2022-09-10T13:57:13.870Z,1003.66
2022-09-10T13:59:46.799Z,1003.63
2022-09-10T14:02:19.892Z,1003.64
2022-09-10T14:04:52.798Z,1003.62
2022-09-10T14:07:25.703Z,1003.61
2022-09-10T14:09:58.629Z,1003.60
2022-09-10T14:12:31.625Z,1003.58
2022-09-10T14:15:04.986Z,1003.57
2022-09-10T14:17:37.798Z,1003.56
2022-09-10T14:20:10.921Z,1003.55
2022-09-10T14:22:43.978Z,1003.57
2022-09-10T14:25:16.629Z,1003.57
2022-09-10T14:27:54.733Z,1003.55
2022-09-10T14:30:22.770Z,1003.56
2022-09-10T14:32:58.654Z,1003.57
2022-09-10T14:35:31.659Z,1003.58
2022-09-10T14:38:04.822Z,1003.59
2022-09-10T14:40:37.808Z,1003.57
2022-09-10T14:43:10.775Z,1003.57
2022-09-10T14:45:44.055Z,1003.55
2022-09-10T14:48:16.688Z,1003.53
2022-09-10T14:50:49.728Z,1003.49
2022-09-10T14:53:22.850Z,1003.48
2022-09-10T14:55:56.086Z,1003.50
2022-09-10T14:58:28.825Z,1003.55
2022-09-10T15:01:01.869Z,1003.54
2022-09-10T15:03:34.860Z,1003.55
2022-09-10T15:06:07.941Z,1003.55
2022-09-10T15:08:41.072Z,1003.54
2022-09-10T15:11:13.718Z,1003.54
2022-09-10T15:13:46.865Z,1003.54
2022-09-10T15:16:19.850Z,1003.54
2022-09-10T15:18:52.878Z,1003.53
2022-09-10T15:21:25.869Z,1003.54
2022-09-10T15:23:58.982Z,1003.56
2022-09-10T15:26:31.905Z,1003.56
2022-09-10T15:29:04.807Z,1003.56
2022-09-10T15:31:37.965Z,1003.53
2022-09-10T15:34:10.872Z,1003.53
2022-09-10T15:36:43.803Z,1003.51
2022-09-10T15:39:16.838Z,1003.49
2022-09-10T15:41:49.867Z,1003.48
2022-09-10T15:44:23.096Z,1003.49
2022-09-10T15:46:55.867Z,1003.49
2022-09-10T15:49:29.049Z,1003.48
2022-09-10T15:52:02.067Z,1003.50
2022-09-10T15:54:34.755Z,1003.50
2022-09-10T15:57:08.147Z,1003.49
2022-09-10T15:59:41.105Z,1003.49
2022-09-10T16:02:14.152Z,1003.50
2022-09-10T16:04:47.060Z,1003.49
2022-09-10T16:07:20.074Z,1003.51
2022-09-10T16:09:53.134Z,1003.52
2022-09-10T16:12:40.116Z,1003.52
2022-09-10T16:15:13.203Z,1003.52
2022-09-10T16:17:50.067Z,1003.51
2022-09-10T16:20:22.806Z,1003.51
2022-09-10T16:22:55.920Z,1003.51
2022-09-10T16:25:29.087Z,1003.52
2022-09-10T16:28:02.087Z,1003.56
2022-09-10T16:30:34.939Z,1003.60
2022-09-10T16:33:08.138Z,1003.64
2022-09-10T16:35:41.179Z,1003.66
2022-09-10T16:38:14.192Z,1003.67
2022-09-10T16:40:47.172Z,1003.69
2022-09-10T16:43:20.208Z,1003.72
2022-09-10T16:45:53.151Z,1003.76
2022-09-10T16:48:25.870Z,1003.79
2022-09-10T16:50:59.184Z,1003.81
2022-09-10T16:53:32.109Z,1003.84
2022-09-10T16:56:04.980Z,1003.89
2022-09-10T16:58:38.329Z,1003.92
2022-09-10T17:01:11.280Z,1003.94
2022-09-10T17:03:44.226Z,1003.96
2022-09-10T17:06:16.962Z,1003.96
2022-09-10T17:08:50.100Z,1003.98
2022-09-10T17:11:24.808Z,1003.98
2022-09-10T17:13:58.053Z,1004.00
2022-09-10T17:16:30.874Z,1003.99
2022-09-10T17:19:03.938Z,1004.01
2022-09-10T17:21:37.141Z,1004.00
2022-09-10T17:24:10.256Z,1004.01
2022-09-10T17:26:43.198Z,1004.01
2022-09-10T17:29:16.153Z,1004.00
2022-09-10T17:31:48.984Z,1004.01
2022-09-10T17:34:22.216Z,1004.04
2022-09-10T17:36:55.054Z,1004.07
2022-09-10T17:39:27.928Z,1004.09
2022-09-10T17:42:01.084Z,1004.12
2022-09-10T17:44:33.912Z,1004.15
2022-09-10T17:47:07.040Z,1004.17
2022-09-10T17:49:40.115Z,1004.19
2022-09-10T17:52:12.929Z,1004.23
2022-09-10T17:54:45.966Z,1004.25
2022-09-10T17:57:19.124Z,1004.28
2022-09-10T17:59:52.087Z,1004.32
2022-09-10T18:02:25.245Z,1004.34
2022-09-10T18:04:58.334Z,1004.34
2022-09-10T18:07:31.292Z,1004.36
2022-09-10T18:10:04.314Z,1004.37
2022-09-10T18:12:37.340Z,1004.38
2022-09-10T18:15:10.289Z,1004.39
2022-09-10T18:17:43.297Z,1004.40
2022-09-10T18:20:16.330Z,1004.41
2022-09-10T18:22:49.284Z,1004.41
2022-09-10T18:25:22.015Z,1004.42
2022-09-10T18:27:55.127Z,1004.42
2022-09-10T18:30:28.120Z,1004.44
2022-09-10T18:33:01.089Z,1004.43
2022-09-10T18:35:34.272Z,1004.44
2022-09-10T18:38:07.165Z,1004.44
2022-09-10T18:40:39.988Z,1004.45
2022-09-10T18:43:13.380Z,1004.45
2022-09-10T18:45:46.322Z,1004.46
2022-09-10T18:48:19.306Z,1004.45
2022-09-10T18:50:52.172Z,1004.44
2022-09-10T18:53:25.377Z,1004.45
2022-09-10T18:55:58.308Z,1004.45
2022-09-10T18:58:31.035Z,1004.47
2022-09-10T19:01:04.131Z,1004.48
2022-09-10T19:03:37.383Z,1004.49
2022-09-10T19:06:10.181Z,1004.51
2022-09-10T19:08:43.382Z,1004.51
2022-09-10T19:11:16.333Z,1004.55
2022-09-10T19:13:49.204Z,1004.56
2022-09-10T19:16:25.294Z,1004.60
2022-09-10T19:18:58.410Z,1004.61
2022-09-10T19:21:31.381Z,1004.64
2022-09-10T19:24:04.452Z,1004.66
2022-09-10T19:26:37.433Z,1004.68
2022-09-10T19:29:10.394Z,1004.71
2022-09-10T19:31:57.300Z,1004.72
2022-09-10T19:34:30.448Z,1004.73
2022-09-10T19:37:03.437Z,1004.75
2022-09-10T19:39:36.490Z,1004.76
2022-09-10T19:42:10.440Z,1004.78
2022-09-10T19:44:43.372Z,1004.79
2022-09-10T19:47:16.487Z,1004.81
2022-09-10T19:50:03.405Z,1004.81
2022-09-10T19:52:36.428Z,1004.82
2022-09-10T19:55:09.443Z,1004.84
2022-09-10T19:57:42.398Z,1004.86
2022-09-10T20:00:36.261Z,1004.87
2022-09-10T20:02:48.211Z,1004.88
2022-09-10T20:05:21.102Z,1004.91
2022-09-10T20:07:54.189Z,1004.92
2022-09-10T20:10:27.374Z,1004.91
2022-09-10T20:13:00.175Z,1004.90
2022-09-10T20:15:33.105Z,1004.90
2022-09-10T20:18:06.554Z,1004.89
2022-09-10T20:20:39.287Z,1004.90
2022-09-10T20:23:12.429Z,1004.92
2022-09-10T20:25:45.467Z,1004.93
2022-09-10T20:28:18.451Z,1004.94
2022-09-10T20:30:51.567Z,1004.95
2022-09-10T20:33:24.256Z,1004.95
2022-09-10T20:35:57.321Z,1004.93
2022-09-10T20:38:30.478Z,1004.95
2022-09-10T20:41:03.524Z,1004.97
2022-09-10T20:43:36.468Z,1004.97
2022-09-10T20:46:09.578Z,1004.99
2022-09-10T20:48:47.028Z,1005.00
2022-09-10T20:51:15.514Z,1005.00
2022-09-10T20:53:48.496Z,1005.02
2022-09-10T20:56:21.541Z,1005.03
2022-09-10T20:58:54.573Z,1005.05
2022-09-10T21:01:27.634Z,1005.06
2022-09-10T21:04:00.558Z,1005.07
2022-09-10T21:06:33.514Z,1005.07
2022-09-10T21:09:06.581Z,1005.07
2022-09-10T21:11:39.553Z,1005.07
2022-09-10T21:14:12.534Z,1005.07
2022-09-10T21:16:45.512Z,1005.05
2022-09-10T21:19:18.498Z,1005.05
2022-09-10T21:21:51.583Z,1005.04
2022-09-10T21:24:24.423Z,1005.04
2022-09-10T21:26:57.563Z,1005.04
2022-09-10T21:29:30.569Z,1005.04
2022-09-10T21:32:03.606Z,1005.05
2022-09-10T21:34:36.665Z,1005.07
2022-09-10T21:37:09.527Z,1005.06
2022-09-10T21:39:42.691Z,1005.07
2022-09-10T21:42:18.467Z,1005.07
2022-09-10T21:44:51.539Z,1005.08
2022-09-10T21:47:24.613Z,1005.08
2022-09-10T21:49:57.536Z,1005.09
2022-09-10T21:52:36.472Z,1005.09
2022-09-10T21:55:09.611Z,1005.09
2022-09-10T21:57:42.647Z,1005.11
2022-09-10T22:00:15.599Z,1005.12
2022-09-10T22:02:48.763Z,1005.14
2022-09-10T22:05:21.611Z,1005.15
2022-09-10T22:07:54.689Z,1005.17
2022-09-10T22:10:27.679Z,1005.20
2022-09-10T22:13:00.559Z,1005.21
2022-09-10T22:15:33.595Z,1005.23
2022-09-10T22:18:06.641Z,1005.23
2022-09-10T22:20:39.444Z,1005.25
2022-09-10T22:23:12.636Z,1005.26
2022-09-10T22:25:45.703Z,1005.27
2022-09-10T22:28:18.593Z,1005.30
2022-09-10T22:30:51.715Z,1005.32
2022-09-10T22:33:24.684Z,1005.33
2022-09-10T22:35:57.686Z,1005.34
2022-09-10T22:38:30.590Z,1005.34
2022-09-10T22:41:03.498Z,1005.34
2022-09-10T22:43:36.689Z,1005.36
2022-09-10T22:46:09.697Z,1005.37
2022-09-10T22:48:42.912Z,1005.37
2022-09-10T22:51:15.710Z,1005.37
2022-09-10T22:53:48.751Z,1005.36
2022-09-10T22:56:21.749Z,1005.38
2022-09-10T22:58:54.670Z,1005.39
2022-09-10T23:01:27.761Z,1005.38
2022-09-10T23:04:00.704Z,1005.40
2022-09-10T23:06:33.662Z,1005.39
2022-09-10T23:09:06.740Z,1005.39
2022-09-10T23:11:39.533Z,1005.40
2022-09-10T23:14:12.471Z,1005.41
2022-09-10T23:16:45.698Z,1005.43
2022-09-10T23:19:18.777Z,1005.44
2022-09-10T23:21:51.672Z,1005.42
2022-09-10T23:24:24.565Z,1005.42
2022-09-10T23:26:57.676Z,1005.43
2022-09-10T23:29:30.722Z,1005.45
2022-09-10T23:32:03.531Z,1005.45
2022-09-10T23:34:36.726Z,1005.46
2022-09-10T23:37:09.756Z,1005.48
2022-09-10T23:39:42.748Z,1005.51
2022-09-10T23:42:15.771Z,1005.53
2022-09-10T23:44:48.710Z,1005.56
2022-09-10T23:47:22.151Z,1005.56
2022-09-10T23:49:55.763Z,1005.58
2022-09-10T23:52:28.709Z,1005.58
2022-09-10T23:55:01.805Z,1005.58
2022-09-10T23:57:34.874Z,1005.57
